CMA CGM Volga — 5BJR2 — position and weather

sailwx.info

Track history (hours):
 
Tides and Currents Weather Stations Pressure Air Temp Water Temp Dewpoint Dewpoint Depression Visibility Wind Speed Wind Dir Waves Ship Positions

CMA CGM Volga

Last reported at 2016-Jun-26 13:15 UTC. Time now 2016-Jun-26 19:10 UTC.
Position N 59°37' E 023°20'.

Length 184 m; draft 8.9 m.

Type: Ship (hazmat cat A). MMSI: 212456000.

Date/timePositionNaut miles runAvg speedWind from/ knotsBaromVisibWave heightAir tempDewpointWater temp
2016-Jun-26 13:15N 59°37' E 023°20'1213.9
2016-Jun-26 12:22N 59°40' E 023°44'2513.8
2016-Jun-26 10:34N 59°48' E 024°31'3014.1
2016-Jun-26 08:26N 59°54' E 025°30'2614.1
2016-Jun-26 06:33N 59°60' E 026°21'1313.5
2016-Jun-26 05:33N 60°00' E 026°48'4212.7
2016-Jun-26 02:14N 60°09' E 028°11'913.4
2016-Jun-26 01:33N 60°04' E 028°26'1413.7
2016-Jun-26 00:33N 60°03' E 028°54'1413.7
2016-Jun-25 23:33N 60°02' E 029°21'1211.6
2016-Jun-25 22:33N 59°59' E 029°44'1211.7
2016-Jun-25 21:33N 59°54' E 030°05'4 3.7
2016-Jun-25 20:31N 59°53' E 030°12'0 0.0
2016-Jun-25 19:31N 59°53' E 030°12'0 0.0
2016-Jun-25 18:31N 59°53' E 030°12'0 0.0
2016-Jun-25 17:25N 59°53' E 030°12'0 0.0
2016-Jun-25 16:31N 59°53' E 030°12'0 0.0
2016-Jun-25 15:31N 59°53' E 030°12'0 0.0
2016-Jun-25 14:28N 59°53' E 030°12'0 0.0
2016-Jun-25 13:31N 59°53' E 030°12'0 0.0
2016-Jun-25 12:31N 59°53' E 030°12'0 0.0
2016-Jun-25 11:31N 59°53' E 030°12'0 0.0
2016-Jun-25 10:31N 59°53' E 030°12'0 0.0
2016-Jun-25 09:31N 59°53' E 030°12'0 0.0
2016-Jun-25 08:28N 59°53' E 030°12'0 0.0
2016-Jun-25 07:31N 59°53' E 030°12'0 0.0
2016-Jun-25 06:31N 59°53' E 030°12'0 0.0
2016-Jun-25 05:28N 59°53' E 030°12'0 0.0
2016-Jun-25 04:31N 59°53' E 030°12'4 4.6
2016-Jun-25 03:33N 59°55' E 030°04'10 9.6
2016-Jun-25 02:33N 59°59' E 029°46'22 9.7
2016-Jun-25 00:19N 60°01' E 029°03'8 8.5
2016-Jun-24 23:24N 60°02' E 028°48'3 3.8
2016-Jun-24 22:33N 60°01' E 028°41'1 1.0
2016-Jun-24 21:33N 60°00' E 028°40'6 6.1
2016-Jun-24 20:33N 59°55' E 028°33'1313.0
2016-Jun-24 19:33N 59°43' E 028°25'3 2.6
2016-Jun-24 18:33N 59°40' E 028°24'0 0.0
2016-Jun-24 17:32N 59°40' E 028°24'0 0.0
2016-Jun-24 16:23N 59°40' E 028°24'0 0.0
2016-Jun-24 14:23N 59°40' E 028°24'0 0.0
2016-Jun-24 12:11N 59°40' E 028°24'0 0.0
2016-Jun-24 11:11N 59°40' E 028°24'0 0.0
2016-Jun-24 10:14N 59°40' E 028°24'0 0.0
2016-Jun-24 09:29N 59°40' E 028°24'0 0.0
2016-Jun-24 08:29N 59°40' E 028°24'0 0.0
2016-Jun-24 07:29N 59°40' E 028°24'0 0.0
2016-Jun-24 04:32N 59°40' E 028°24'0 0.0
2016-Jun-24 03:20N 59°40' E 028°24'0 0.3
2016-Jun-24 02:33N 59°41' E 028°24'9 9.1
2016-Jun-24 01:33N 59°50' E 028°26'1010.4
2016-Jun-24 00:33N 59°59' E 028°35'1312.8
2016-Jun-23 23:33N 60°07' E 028°15'1414.1
2016-Jun-23 22:33N 60°11' E 027°47'1615.8
2016-Jun-23 21:32N 60°02' E 027°19'1514.9
2016-Jun-23 20:33N 59°59' E 026°51'1615.5
2016-Jun-23 19:33N 59°57' E 026°20'2216.8
2016-Jun-23 18:13N 59°51' E 025°38'3717.3
2016-Jun-23 16:05N 59°44' E 024°26'1517.5
2016-Jun-23 15:12N 59°39' E 023°56'1217.6
2016-Jun-23 14:32N 59°35' E 023°35'28718.0
2016-Jun-22 22:34N 55°26' E 019°09'1918.5
2016-Jun-22 21:33N 55°08' E 019°02'1818.5
2016-Jun-22 20:33N 54°49' E 019°04'1717.3
2016-Jun-22 19:34N 54°32' E 019°04'1313.4
2016-Jun-22 18:33N 54°24' E 018°45'1 1.3
2016-Jun-22 17:30N 54°23' E 018°43'0 0.0
2016-Jun-22 16:33N 54°23' E 018°43'0 0.0
2016-Jun-22 15:33N 54°23' E 018°43'0 0.0
2016-Jun-22 14:33N 54°23' E 018°43'0 0.0
2016-Jun-22 13:33N 54°23' E 018°43'0 0.0
2016-Jun-22 12:33N 54°23' E 018°43'0 0.0
2016-Jun-22 11:33N 54°23' E 018°43'0 0.0
2016-Jun-22 10:33N 54°23' E 018°43'0 0.0
2016-Jun-22 09:33N 54°23' E 018°43'0 0.0
2016-Jun-22 08:33N 54°23' E 018°43'0 0.0
2016-Jun-22 07:33N 54°23' E 018°43'0 0.0
2016-Jun-22 06:33N 54°23' E 018°43'0 0.0
2016-Jun-22 05:30N 54°23' E 018°43'0 0.0
2016-Jun-22 04:33N 54°23' E 018°43'0 0.0
2016-Jun-22 03:33N 54°23' E 018°43'0 0.0
2016-Jun-22 02:33N 54°23' E 018°43'0 0.0
2016-Jun-22 01:33N 54°23' E 018°43'0 0.0
2016-Jun-22 00:33N 54°23' E 018°43'0 0.0
2016-Jun-21 23:33N 54°23' E 018°43'0 0.0
2016-Jun-21 22:33N 54°23' E 018°43'0 0.0
2016-Jun-21 21:30N 54°23' E 018°43'0 0.0
2016-Jun-21 20:33N 54°23' E 018°43'0 0.0
2016-Jun-21 19:33N 54°23' E 018°43'2 1.6
2016-Jun-21 18:33N 54°24' E 018°45'5 5.0
2016-Jun-21 17:33N 54°28' E 018°51'0 0.3
2016-Jun-21 16:31N 54°28' E 018°51'0 0.0
2016-Jun-21 15:31N 54°28' E 018°51'0 0.0
2016-Jun-21 14:31N 54°28' E 018°51'0 0.1
2016-Jun-21 13:31N 54°28' E 018°51'0 0.0
2016-Jun-21 12:28N 54°28' E 018°51'0 0.0
2016-Jun-21 11:31N 54°28' E 018°51'0 0.0
2016-Jun-21 10:31N 54°28' E 018°51'0 0.0
2016-Jun-21 09:31N 54°28' E 018°51'0 0.0
2016-Jun-21 08:31N 54°28' E 018°51'0 0.0
2016-Jun-21 07:31N 54°28' E 018°51'0 0.0
2016-Jun-21 04:31N 54°28' E 018°51'0 0.0
2016-Jun-21 03:31N 54°28' E 018°51'0 0.0
2016-Jun-21 02:31N 54°28' E 018°51'0 0.1
2016-Jun-21 01:31N 54°28' E 018°51'0 0.0
2016-Jun-21 00:31N 54°28' E 018°51'0 0.0
2016-Jun-20 23:31N 54°28' E 018°51'0 0.0
2016-Jun-20 22:31N 54°28' E 018°51'0 0.1
2016-Jun-20 21:31N 54°28' E 018°51'0 0.1
2016-Jun-20 20:31N 54°28' E 018°51'0 0.1
2016-Jun-20 19:31N 54°28' E 018°51'0 0.0
2016-Jun-20 18:31N 54°28' E 018°51'0 0.0
2016-Jun-20 17:31N 54°28' E 018°51'0 0.0
2016-Jun-20 16:31N 54°28' E 018°51'0 0.1
2016-Jun-20 15:31N 54°28' E 018°51'0 0.0
2016-Jun-20 14:31N 54°28' E 018°51'0 0.0
2016-Jun-20 13:31N 54°28' E 018°51'0 0.0
2016-Jun-20 12:31N 54°28' E 018°51'0 0.0
2016-Jun-20 11:28N 54°28' E 018°51'0 0.0
2016-Jun-20 10:31N 54°28' E 018°51'0 0.0
2016-Jun-20 09:31N 54°28' E 018°51'0 0.0
2016-Jun-20 08:31N 54°28' E 018°51'0 0.0
2016-Jun-20 07:31N 54°28' E 018°51'0 0.0
2016-Jun-20 06:28N 54°28' E 018°51'0 0.0
2016-Jun-20 05:31N 54°28' E 018°51'0 0.0
2016-Jun-20 04:31N 54°28' E 018°51'0 0.0
2016-Jun-20 03:28N 54°28' E 018°51'0 0.0
2016-Jun-20 02:31N 54°28' E 018°51'0 0.0
2016-Jun-20 01:31N 54°28' E 018°51'0 0.0
2016-Jun-20 00:28N 54°28' E 018°51'0 0.0
2016-Jun-19 23:28N 54°28' E 018°51'0 0.0
2016-Jun-19 22:28N 54°28' E 018°51'0 0.0
2016-Jun-19 21:31N 54°28' E 018°51'0 0.0
2016-Jun-19 20:31N 54°28' E 018°51'0 0.0
2016-Jun-19 19:31N 54°28' E 018°51'0 0.0
2016-Jun-19 18:31N 54°28' E 018°51'0 0.0
2016-Jun-19 17:31N 54°28' E 018°51'0 0.0
2016-Jun-19 16:31N 54°28' E 018°51'0 0.0
2016-Jun-19 15:31N 54°28' E 018°51'0 0.2
2016-Jun-19 14:31N 54°28' E 018°51'0 0.1
2016-Jun-19 13:25N 54°28' E 018°51'2 2.7
2016-Jun-19 12:33N 54°27' E 018°55'1212.3
2016-Jun-19 11:33N 54°38' E 019°04'1312.6
2016-Jun-19 10:34N 54°50' E 019°11'1514.0
2016-Jun-19 09:29N 55°03' E 019°25'1314.0
2016-Jun-19 08:33N 55°13' E 019°40'  
2016-Jun-16 19:29N 59°37' E 023°20'1313.2
2016-Jun-16 18:31N 59°40' E 023°44'2612.7
2016-Jun-16 16:29N 59°43' E 024°35'1313.3
2016-Jun-16 15:30N 59°34' E 024°54'  
Track history (hours):
 
Tides and Currents Weather Stations Pressure Air Temp Water Temp Dewpoint Dewpoint Depression Visibility Wind Speed Wind Dir Waves Ship Positions

CMA CGM Volga

Last reported at 2016-Jun-26 13:15 UTC. Time now 2016-Jun-26 19:10 UTC.
Position N 59°37' E 023°20'.

Length 184 m; draft 8.9 m.

Type: Ship (hazmat cat A). MMSI: 212456000.

Date/timePositionNaut miles runAvg speedWind from/ knotsBaromVisibWave heightAir tempDewpointWater temp
2016-Jun-26 13:15N 59°37' E 023°20'1213.9
2016-Jun-26 12:22N 59°40' E 023°44'2513.8
2016-Jun-26 10:34N 59°48' E 024°31'3014.1
2016-Jun-26 08:26N 59°54' E 025°30'2614.1
2016-Jun-26 06:33N 59°60' E 026°21'1313.5
2016-Jun-26 05:33N 60°00' E 026°48'4212.7
2016-Jun-26 02:14N 60°09' E 028°11'913.4
2016-Jun-26 01:33N 60°04' E 028°26'1413.7
2016-Jun-26 00:33N 60°03' E 028°54'1413.7
2016-Jun-25 23:33N 60°02' E 029°21'1211.6
2016-Jun-25 22:33N 59°59' E 029°44'1211.7
2016-Jun-25 21:33N 59°54' E 030°05'4 3.7
2016-Jun-25 20:31N 59°53' E 030°12'0 0.0
2016-Jun-25 19:31N 59°53' E 030°12'0 0.0
2016-Jun-25 18:31N 59°53' E 030°12'0 0.0
2016-Jun-25 17:25N 59°53' E 030°12'0 0.0
2016-Jun-25 16:31N 59°53' E 030°12'0 0.0
2016-Jun-25 15:31N 59°53' E 030°12'0 0.0
2016-Jun-25 14:28N 59°53' E 030°12'0 0.0
2016-Jun-25 13:31N 59°53' E 030°12'0 0.0
2016-Jun-25 12:31N 59°53' E 030°12'0 0.0
2016-Jun-25 11:31N 59°53' E 030°12'0 0.0
2016-Jun-25 10:31N 59°53' E 030°12'0 0.0
2016-Jun-25 09:31N 59°53' E 030°12'0 0.0
2016-Jun-25 08:28N 59°53' E 030°12'0 0.0
2016-Jun-25 07:31N 59°53' E 030°12'0 0.0
2016-Jun-25 06:31N 59°53' E 030°12'0 0.0
2016-Jun-25 05:28N 59°53' E 030°12'0 0.0
2016-Jun-25 04:31N 59°53' E 030°12'4 4.6
2016-Jun-25 03:33N 59°55' E 030°04'10 9.6
2016-Jun-25 02:33N 59°59' E 029°46'22 9.7
2016-Jun-25 00:19N 60°01' E 029°03'8 8.5
2016-Jun-24 23:24N 60°02' E 028°48'3 3.8
2016-Jun-24 22:33N 60°01' E 028°41'1 1.0
2016-Jun-24 21:33N 60°00' E 028°40'6 6.1
2016-Jun-24 20:33N 59°55' E 028°33'1313.0
2016-Jun-24 19:33N 59°43' E 028°25'3 2.6
2016-Jun-24 18:33N 59°40' E 028°24'0 0.0
2016-Jun-24 17:32N 59°40' E 028°24'0 0.0
2016-Jun-24 16:23N 59°40' E 028°24'0 0.0
2016-Jun-24 14:23N 59°40' E 028°24'0 0.0
2016-Jun-24 12:11N 59°40' E 028°24'0 0.0
2016-Jun-24 11:11N 59°40' E 028°24'0 0.0
2016-Jun-24 10:14N 59°40' E 028°24'0 0.0
2016-Jun-24 09:29N 59°40' E 028°24'0 0.0
2016-Jun-24 08:29N 59°40' E 028°24'0 0.0
2016-Jun-24 07:29N 59°40' E 028°24'0 0.0
2016-Jun-24 04:32N 59°40' E 028°24'0 0.0
2016-Jun-24 03:20N 59°40' E 028°24'0 0.3
2016-Jun-24 02:33N 59°41' E 028°24'9 9.1
2016-Jun-24 01:33N 59°50' E 028°26'1010.4
2016-Jun-24 00:33N 59°59' E 028°35'1312.8
2016-Jun-23 23:33N 60°07' E 028°15'1414.1
2016-Jun-23 22:33N 60°11' E 027°47'1615.8
2016-Jun-23 21:32N 60°02' E 027°19'1514.9
2016-Jun-23 20:33N 59°59' E 026°51'1615.5
2016-Jun-23 19:33N 59°57' E 026°20'2216.8
2016-Jun-23 18:13N 59°51' E 025°38'3717.3
2016-Jun-23 16:05N 59°44' E 024°26'1517.5
2016-Jun-23 15:12N 59°39' E 023°56'1217.6
2016-Jun-23 14:32N 59°35' E 023°35'28718.0
2016-Jun-22 22:34N 55°26' E 019°09'1918.5
2016-Jun-22 21:33N 55°08' E 019°02'1818.5
2016-Jun-22 20:33N 54°49' E 019°04'1717.3
2016-Jun-22 19:34N 54°32' E 019°04'1313.4
2016-Jun-22 18:33N 54°24' E 018°45'1 1.3
2016-Jun-22 17:30N 54°23' E 018°43'0 0.0
2016-Jun-22 16:33N 54°23' E 018°43'0 0.0
2016-Jun-22 15:33N 54°23' E 018°43'0 0.0
2016-Jun-22 14:33N 54°23' E 018°43'0 0.0
2016-Jun-22 13:33N 54°23' E 018°43'0 0.0
2016-Jun-22 12:33N 54°23' E 018°43'0 0.0
2016-Jun-22 11:33N 54°23' E 018°43'0 0.0
2016-Jun-22 10:33N 54°23' E 018°43'0 0.0
2016-Jun-22 09:33N 54°23' E 018°43'0 0.0
2016-Jun-22 08:33N 54°23' E 018°43'0 0.0
2016-Jun-22 07:33N 54°23' E 018°43'0 0.0
2016-Jun-22 06:33N 54°23' E 018°43'0 0.0
2016-Jun-22 05:30N 54°23' E 018°43'0 0.0
2016-Jun-22 04:33N 54°23' E 018°43'0 0.0
2016-Jun-22 03:33N 54°23' E 018°43'0 0.0
2016-Jun-22 02:33N 54°23' E 018°43'0 0.0
2016-Jun-22 01:33N 54°23' E 018°43'0 0.0
2016-Jun-22 00:33N 54°23' E 018°43'0 0.0
2016-Jun-21 23:33N 54°23' E 018°43'0 0.0
2016-Jun-21 22:33N 54°23' E 018°43'0 0.0
2016-Jun-21 21:30N 54°23' E 018°43'0 0.0
2016-Jun-21 20:33N 54°23' E 018°43'0 0.0
2016-Jun-21 19:33N 54°23' E 018°43'2 1.6
2016-Jun-21 18:33N 54°24' E 018°45'5 5.0
2016-Jun-21 17:33N 54°28' E 018°51'0 0.3
2016-Jun-21 16:31N 54°28' E 018°51'0 0.0
2016-Jun-21 15:31N 54°28' E 018°51'0 0.0
2016-Jun-21 14:31N 54°28' E 018°51'0 0.1
2016-Jun-21 13:31N 54°28' E 018°51'0 0.0
2016-Jun-21 12:28N 54°28' E 018°51'0 0.0
2016-Jun-21 11:31N 54°28' E 018°51'0 0.0
2016-Jun-21 10:31N 54°28' E 018°51'0 0.0
2016-Jun-21 09:31N 54°28' E 018°51'0 0.0
2016-Jun-21 08:31N 54°28' E 018°51'0 0.0
2016-Jun-21 07:31N 54°28' E 018°51'0 0.0
2016-Jun-21 04:31N 54°28' E 018°51'0 0.0
2016-Jun-21 03:31N 54°28' E 018°51'0 0.0
2016-Jun-21 02:31N 54°28' E 018°51'0 0.1
2016-Jun-21 01:31N 54°28' E 018°51'0 0.0
2016-Jun-21 00:31N 54°28' E 018°51'0 0.0
2016-Jun-20 23:31N 54°28' E 018°51'0 0.0
2016-Jun-20 22:31N 54°28' E 018°51'0 0.1
2016-Jun-20 21:31N 54°28' E 018°51'0 0.1
2016-Jun-20 20:31N 54°28' E 018°51'0 0.1
2016-Jun-20 19:31N 54°28' E 018°51'0 0.0
2016-Jun-20 18:31N 54°28' E 018°51'0 0.0
2016-Jun-20 17:31N 54°28' E 018°51'0 0.0
2016-Jun-20 16:31N 54°28' E 018°51'0 0.1
2016-Jun-20 15:31N 54°28' E 018°51'0 0.0
2016-Jun-20 14:31N 54°28' E 018°51'0 0.0
2016-Jun-20 13:31N 54°28' E 018°51'0 0.0
2016-Jun-20 12:31N 54°28' E 018°51'0 0.0
2016-Jun-20 11:28N 54°28' E 018°51'0 0.0
2016-Jun-20 10:31N 54°28' E 018°51'0 0.0
2016-Jun-20 09:31N 54°28' E 018°51'0 0.0
2016-Jun-20 08:31N 54°28' E 018°51'0 0.0
2016-Jun-20 07:31N 54°28' E 018°51'0 0.0
2016-Jun-20 06:28N 54°28' E 018°51'0 0.0
2016-Jun-20 05:31N 54°28' E 018°51'0 0.0
2016-Jun-20 04:31N 54°28' E 018°51'0 0.0
2016-Jun-20 03:28N 54°28' E 018°51'0 0.0
2016-Jun-20 02:31N 54°28' E 018°51'0 0.0
2016-Jun-20 01:31N 54°28' E 018°51'0 0.0
2016-Jun-20 00:28N 54°28' E 018°51'0 0.0
2016-Jun-19 23:28N 54°28' E 018°51'0 0.0
2016-Jun-19 22:28N 54°28' E 018°51'0 0.0
2016-Jun-19 21:31N 54°28' E 018°51'0 0.0
2016-Jun-19 20:31N 54°28' E 018°51'0 0.0
2016-Jun-19 19:31N 54°28' E 018°51'0 0.0
2016-Jun-19 18:31N 54°28' E 018°51'0 0.0
2016-Jun-19 17:31N 54°28' E 018°51'0 0.0
2016-Jun-19 16:31N 54°28' E 018°51'0 0.0
2016-Jun-19 15:31N 54°28' E 018°51'0 0.2
2016-Jun-19 14:31N 54°28' E 018°51'0 0.1
2016-Jun-19 13:25N 54°28' E 018°51'2 2.7
2016-Jun-19 12:33N 54°27' E 018°55'1212.3
2016-Jun-19 11:33N 54°38' E 019°04'1312.6
2016-Jun-19 10:34N 54°50' E 019°11'1514.0
2016-Jun-19 09:29N 55°03' E 019°25'1314.0
2016-Jun-19 08:33N 55°13' E 019°40'  
2016-Jun-16 19:29N 59°37' E 023°20'1313.2
2016-Jun-16 18:31N 59°40' E 023°44'2612.7
2016-Jun-16 16:29N 59°43' E 024°35'1313.3
2016-Jun-16 15:30N 59°34' E 024°54'  

Dump ship's entire track history